Terminal Aerodrome Forecast
Issued by NWS Des Moines, IA

Current Version | Previous Version | Text Only | Print | Product List | Glossary On
Versions: 1 2 3 4 5 6 7 8 9 10 11 12 13 14 15 16 17 18 19 20 21 22 23 24 25 26
000
FTUS43 KDMX 311121
TAFALO
TAF
KALO 311121Z 3112/0112 30003KT P6SM FEW060
     FM311800 27008KT P6SM BKN040
     FM010300 VRB02KT P6SM SCT040=

USA.gov is the U.S. government's official web portal to all federal, state and local government web resources and services.